createdAt,value
2022-09-28T00:04:54.869Z,98668.53
2022-09-28T00:10:16.671Z,98662.16
2022-09-28T00:15:38.484Z,98669.00
2022-09-28T00:21:19.914Z,98660.09
2022-09-28T00:26:53.664Z,98650.25
2022-09-28T00:32:18.830Z,98648.25
2022-09-28T00:37:40.890Z,98665.81
2022-09-28T00:43:17.769Z,98662.47
2022-09-28T00:48:46.197Z,98665.53
2022-09-28T00:54:09.540Z,98673.97
2022-09-28T00:59:33.591Z,98672.50
2022-09-28T01:04:57.957Z,98669.59
2022-09-28T01:10:19.764Z,98668.56
2022-09-28T01:16:20.459Z,98673.28
2022-09-28T01:22:24.312Z,98666.34
2022-09-28T01:27:57.443Z,98669.13
2022-09-28T01:33:24.880Z,98664.50
2022-09-28T01:38:50.976Z,98668.56
2022-09-28T01:44:17.441Z,98680.84
2022-09-28T01:49:44.792Z,98676.03
2022-09-28T01:55:11.973Z,98679.19
2022-09-28T02:00:38.303Z,98671.34
2022-09-28T02:06:07.647Z,98672.34
2022-09-28T02:11:29.548Z,98659.44
2022-09-28T02:16:53.602Z,98660.66
2022-09-28T02:22:21.877Z,98672.06
2022-09-28T02:28:13.605Z,98686.28
2022-09-28T02:33:41.827Z,98681.03
2022-09-28T02:39:03.709Z,98678.97
2022-09-28T02:44:33.607Z,98676.41
2022-09-28T02:50:26.293Z,98666.78
2022-09-28T02:56:22.884Z,98679.56
2022-09-28T03:01:50.513Z,98665.13
2022-09-28T03:07:30.495Z,98665.03
2022-09-28T03:12:54.632Z,98669.31
2022-09-28T03:18:16.855Z,98670.22
2022-09-28T03:23:39.369Z,98671.72
2022-09-28T03:29:01.148Z,98675.03
2022-09-28T03:34:23.001Z,98671.44
2022-09-28T03:39:44.775Z,98677.97
2022-09-28T03:45:07.200Z,98675.69
2022-09-28T03:50:28.989Z,98658.59
2022-09-28T03:55:51.441Z,98666.81
2022-09-28T04:01:17.251Z,98655.28
2022-09-28T04:06:39.692Z,98659.44
2022-09-28T04:12:04.194Z,98655.19
2022-09-28T04:17:26.436Z,98654.28
2022-09-28T04:22:48.238Z,98672.97
2022-09-28T04:28:09.994Z,98684.34
2022-09-28T04:33:31.788Z,98684.81
2022-09-28T04:38:53.783Z,98666.44
2022-09-28T04:44:15.614Z,98669.66
2022-09-28T04:49:37.453Z,98668.09
2022-09-28T04:54:59.196Z,98667.09
2022-09-28T05:00:20.939Z,98661.19
2022-09-28T05:05:46.965Z,98670.50
2022-09-28T05:11:12.290Z,98673.09
2022-09-28T05:16:34.136Z,98672.34
2022-09-28T05:21:56.261Z,98673.06
2022-09-28T05:27:18.021Z,98683.25
2022-09-28T05:32:41.205Z,98681.66
2022-09-28T05:38:04.311Z,98678.63
2022-09-28T05:43:26.173Z,98687.38
2022-09-28T05:48:47.965Z,98688.50
2022-09-28T05:54:09.913Z,98705.19
2022-09-28T05:59:31.651Z,98713.97
2022-09-28T06:04:53.426Z,98710.03
2022-09-28T06:10:15.171Z,98719.41
2022-09-28T06:15:37.173Z,98730.56
2022-09-28T06:20:59.131Z,98719.41
2022-09-28T06:26:20.905Z,98730.47
2022-09-28T06:31:42.685Z,98730.56
2022-09-28T06:37:04.588Z,98722.00
2022-09-28T06:42:26.334Z,98724.09
2022-09-28T06:47:53.089Z,98728.28
2022-09-28T06:53:14.873Z,98731.22
2022-09-28T06:58:36.889Z,98729.31
2022-09-28T07:03:58.632Z,98743.59
2022-09-28T07:09:31.803Z,98728.06
2022-09-28T07:14:54.739Z,98747.22
2022-09-28T07:20:19.352Z,98744.03
2022-09-28T07:25:41.688Z,98741.47
2022-09-28T07:31:03.620Z,98745.22
2022-09-28T07:36:25.533Z,98744.25
2022-09-28T07:41:47.343Z,98743.75
2022-09-28T07:47:09.199Z,98749.09
2022-09-28T07:52:30.983Z,98743.56
2022-09-28T07:57:56.857Z,98737.69
2022-09-28T08:03:20.682Z,98753.16
2022-09-28T08:08:43.904Z,98756.69
2022-09-28T08:14:05.730Z,98755.22
2022-09-28T08:19:27.941Z,98769.31
2022-09-28T08:24:49.844Z,98758.50
2022-09-28T08:30:11.827Z,98759.97
2022-09-28T08:35:33.759Z,98770.06
2022-09-28T08:41:15.483Z,98766.91
2022-09-28T08:46:45.429Z,98768.41
2022-09-28T08:52:30.215Z,98760.88
2022-09-28T08:58:03.346Z,98764.72
2022-09-28T09:03:33.927Z,98770.22
2022-09-28T09:09:10.853Z,98785.97
2022-09-28T09:14:47.716Z,98779.81
2022-09-28T09:20:37.584Z,98775.38
2022-09-28T09:26:12.282Z,98774.53
2022-09-28T09:32:31.433Z,98775.16
2022-09-28T09:38:05.937Z,98789.53
2022-09-28T09:43:56.054Z,98784.25
2022-09-28T09:49:30.810Z,98786.81
2022-09-28T09:55:01.937Z,98803.09
2022-09-28T10:00:23.882Z,98794.03
2022-09-28T10:05:52.493Z,98799.03
2022-09-28T10:11:19.017Z,98803.19
2022-09-28T10:16:40.745Z,98802.53
2022-09-28T10:22:06.041Z,98800.28
2022-09-28T10:27:34.325Z,98805.00
2022-09-28T10:32:56.100Z,98797.34
2022-09-28T10:38:19.116Z,98799.47
2022-09-28T10:44:00.501Z,98795.00
2022-09-28T10:49:24.847Z,98802.13
2022-09-28T10:54:53.353Z,98795.00
2022-09-28T11:00:37.606Z,98792.78
2022-09-28T11:06:03.061Z,98788.13
2022-09-28T11:11:25.088Z,98806.28
2022-09-28T11:16:47.010Z,98801.06
2022-09-28T11:22:35.749Z,98804.72
2022-09-28T11:28:01.463Z,98792.56
2022-09-28T11:33:41.110Z,98783.16
2022-09-28T11:39:28.525Z,98787.09
2022-09-28T11:44:59.110Z,98795.25
2022-09-28T11:50:45.880Z,98803.19
2022-09-28T11:56:35.929Z,98811.50
2022-09-28T12:02:11.070Z,98808.53
2022-09-28T12:07:42.484Z,98807.09
2022-09-28T12:13:12.129Z,98817.53
2022-09-28T12:18:47.197Z,98816.94
2022-09-28T12:24:29.309Z,98810.19
2022-09-28T12:30:02.127Z,98811.94
2022-09-28T12:35:57.914Z,98811.56
2022-09-28T12:41:55.654Z,98800.34
2022-09-28T12:47:46.345Z,98810.66
2022-09-28T12:53:31.430Z,98805.31
2022-09-28T12:59:25.173Z,98800.47
2022-09-28T13:05:18.755Z,98802.81
2022-09-28T13:10:41.337Z,98811.00
2022-09-28T13:16:24.737Z,98803.59
2022-09-28T13:22:04.680Z,98794.44
2022-09-28T13:27:34.611Z,98806.09
2022-09-28T13:32:59.057Z,98797.81
2022-09-28T13:38:20.890Z,98804.53
2022-09-28T13:44:04.566Z,98797.56
2022-09-28T13:49:51.267Z,98791.22
2022-09-28T13:55:30.445Z,98783.13
2022-09-28T14:01:13.094Z,98791.28
2022-09-28T14:06:34.955Z,98781.94
2022-09-28T14:12:48.471Z,98783.06
2022-09-28T14:18:10.244Z,98792.31
2022-09-28T14:23:42.004Z,98792.19
2022-09-28T14:29:24.574Z,98782.75
2022-09-28T14:34:59.704Z,98797.97
2022-09-28T14:40:25.754Z,98791.69
2022-09-28T14:45:47.738Z,98783.50
2022-09-28T14:51:24.999Z,98797.59
2022-09-28T14:57:05.957Z,98795.28
2022-09-28T15:02:33.182Z,98796.59
2022-09-28T15:07:55.546Z,98794.84
2022-09-28T15:13:26.371Z,98808.09
2022-09-28T15:18:51.159Z,98804.84
2022-09-28T15:24:26.643Z,98800.38
2022-09-28T15:30:14.731Z,98822.00
2022-09-28T15:35:36.581Z,98817.59
2022-09-28T15:40:59.325Z,98809.34
2022-09-28T15:46:21.288Z,98801.03
2022-09-28T15:51:51.230Z,98809.38
2022-09-28T15:57:33.539Z,98805.88
2022-09-28T16:03:07.729Z,98797.34
2022-09-28T16:08:35.431Z,98804.31
2022-09-28T16:14:00.360Z,98815.81
2022-09-28T16:19:25.087Z,98808.88
2022-09-28T16:24:55.483Z,98803.19
2022-09-28T16:30:17.357Z,98793.28
2022-09-28T16:35:42.240Z,98799.28
2022-09-28T16:41:04.641Z,98778.34
2022-09-28T16:46:33.836Z,98785.31
2022-09-28T16:51:55.718Z,98781.78
2022-09-28T16:57:17.569Z,98776.91
2022-09-28T17:02:46.729Z,98778.81
2022-09-28T17:08:13.914Z,98799.97
2022-09-28T17:13:35.594Z,98778.75
2022-09-28T17:18:57.352Z,98776.44
2022-09-28T17:24:20.948Z,98779.19
2022-09-28T17:29:43.067Z,98779.28
2022-09-28T17:35:23.716Z,98778.38
2022-09-28T17:40:46.701Z,98768.66
2022-09-28T17:46:29.937Z,98769.94
2022-09-28T17:51:51.902Z,98781.13
2022-09-28T17:57:13.711Z,98799.06
2022-09-28T18:02:35.560Z,98796.94
2022-09-28T18:07:57.421Z,98807.94
2022-09-28T18:13:19.265Z,98814.06
2022-09-28T18:18:41.111Z,98823.97
2022-09-28T18:24:03.028Z,98834.78
2022-09-28T18:29:24.955Z,98838.88
2022-09-28T18:34:46.884Z,98862.44
2022-09-28T18:40:10.547Z,98874.38
2022-09-28T18:45:32.414Z,98874.41
2022-09-28T18:50:54.243Z,98888.91
2022-09-28T18:56:17.978Z,98904.97
2022-09-28T19:01:40.096Z,98908.03
2022-09-28T19:07:02.001Z,98908.44
2022-09-28T19:12:23.823Z,98909.19
2022-09-28T19:17:45.583Z,98917.03
2022-09-28T19:23:07.349Z,98910.63
2022-09-28T19:28:30.047Z,98905.88
2022-09-28T19:33:51.856Z,98882.59
2022-09-28T19:39:14.809Z,98871.59
2022-09-28T19:44:36.571Z,98862.47
2022-09-28T19:49:58.331Z,98852.94
2022-09-28T19:55:20.088Z,98858.75
2022-09-28T20:00:41.845Z,98848.41
2022-09-28T20:06:03.761Z,98849.44
2022-09-28T20:11:26.006Z,98846.59
2022-09-28T20:16:47.766Z,98850.75
2022-09-28T20:22:09.540Z,98853.69
2022-09-28T20:27:31.277Z,98852.94
2022-09-28T20:32:53.101Z,98858.34
2022-09-28T20:38:14.927Z,98854.41
2022-09-28T20:43:38.017Z,98862.56
2022-09-28T20:49:00.066Z,98856.31
2022-09-28T20:54:22.043Z,98838.28
2022-09-28T20:59:44.768Z,98848.84
2022-09-28T21:05:06.969Z,98851.66
2022-09-28T21:10:28.722Z,98850.53
2022-09-28T21:15:50.963Z,98848.53
2022-09-28T21:21:15.206Z,98865.78
2022-09-28T21:26:37.099Z,98863.22
2022-09-28T21:31:58.868Z,98855.56
2022-09-28T21:37:20.658Z,98857.09
2022-09-28T21:42:42.422Z,98852.38
2022-09-28T21:48:04.640Z,98854.78
2022-09-28T21:53:29.041Z,98862.00
2022-09-28T21:58:51.194Z,98871.44
2022-09-28T22:04:13.103Z,98865.88
2022-09-28T22:09:34.862Z,98881.16
2022-09-28T22:14:56.723Z,98879.03
2022-09-28T22:20:18.716Z,98887.84
2022-09-28T22:25:40.485Z,98899.63
2022-09-28T22:31:02.321Z,98901.97
2022-09-28T22:36:25.222Z,98897.97
2022-09-28T22:41:46.983Z,98892.44
2022-09-28T22:47:08.850Z,98887.88
2022-09-28T22:52:30.648Z,98900.22
2022-09-28T22:57:52.428Z,98907.59
2022-09-28T23:03:14.366Z,98904.31
2022-09-28T23:08:36.450Z,98901.16
2022-09-28T23:13:59.643Z,98900.38
2022-09-28T23:19:21.388Z,98902.13
2022-09-28T23:24:43.146Z,98928.94
2022-09-28T23:30:05.367Z,98921.31
2022-09-28T23:35:27.136Z,98915.69
2022-09-28T23:40:49.019Z,98913.47
2022-09-28T23:46:10.859Z,98928.00
2022-09-28T23:51:32.674Z,98939.69
2022-09-28T23:56:54.440Z,98954.59
